ČP LOB klasika
Location Schöneben Start Time 1.2.2009 11:10:55
Category Závod
Distance 27,00 km Ascend 378,9 m Descend -390,0 m
Total Time 01:34:21 Moving 01:31:58 Stopped 00:02:23
Average Speed 17,6 km/h Fastest Speed 34,8 km/h Slowest Speed 6,9 km/h
Calories 1754 Average HR N/A Max HR N/A
Weather -6 °C Clouds
Equipment
Notes 26k, vzdusne 18km, 550m - 1. misto rano jsem se cejtil hrozne, rozhodne ne na zavodeni, ale jelo se mi supr . chyby skoro zadny, fyzicky parada, vubec mi nedoslo, konec jsem zrychlil - dneska sedlo vsechno. Akorat kontrola c.20 byla blbe postavena, nechal jsem tam tak minu a pul - celkove jsem vyhral o 2' pred Jendou - zavod ale ukoncili po protestu n K19, takze jsem vyhral jen asi o 1:20 - na K19 jsem mel necelych 72'. vysledky: HE (CZ) (25) 18.5 km 530 Hm 1 1383 Bouchal Jirí 93:18 2 1302 Lauerman Jan 95:15 3 1374 Skoda Jakub 98:34 4 1336 Laciga Radek 99:56 5 1295 Drobník Michal 100:09 6 1396 Tomecek Lubomír 101:27 7 1300 Venhoda Milan 101:28 8 1385 Kodeda Stepán 103:20 9 1345 Rygl Jaroslav 106:27 10 1397 Vána Lukás 106:54 (25)
Splits
Distance (km) Total Time Split Time Split Pace Split Speed Elevation Change (m)
1,00 00:05:24 00:05:24 00:05:24 11,1 36,99
2,00 00:08:49 00:03:25 00:03:25 17,6 28,31
3,00 00:11:39 00:02:50 00:02:50 21,2 5,49
4,00 00:14:46 00:03:07 00:03:07 19,3 0,47
5,00 00:18:56 00:04:10 00:04:10 14,4 -14,80
6,00 00:21:32 00:02:36 00:02:36 23,1 -6,02
7,00 00:24:47 00:03:15 00:03:15 18,5 -9,70
8,00 00:28:57 00:04:10 00:04:10 14,4 18,50
9,00 00:31:57 00:03:00 00:03:00 20,0 -8,97
10,00 00:35:01 00:03:04 00:03:04 19,6 -14,28
11,00 00:38:56 00:03:55 00:03:55 15,3 42,89
12,00 00:41:47 00:02:51 00:02:51 21,1 -60,69
13,00 00:45:38 00:03:51 00:03:51 15,6 2,79
14,00 00:50:05 00:04:27 00:04:27 13,5 27,51
15,00 00:53:33 00:03:28 00:03:28 17,3 13,83
16,00 00:57:12 00:03:39 00:03:39 16,4 -9,64
17,00 00:59:50 00:02:38 00:02:38 22,8 -5,80
18,00 01:03:33 00:03:43 00:03:43 16,1 4,81
19,00 01:07:00 00:03:27 00:03:27 17,4 21,66
20,00 01:10:29 00:03:29 00:03:29 17,2 -6,90
21,00 01:14:45 00:04:16 00:04:16 14,1 17,06
22,00 01:18:44 00:03:59 00:03:59 15,1 -11,72
23,00 01:21:32 00:02:48 00:02:48 21,4 -45,67
24,00 01:24:36 00:03:04 00:03:04 19,6 0,16
25,00 01:27:50 00:03:14 00:03:14 18,6 -20,57
26,00 01:30:51 00:03:01 00:03:01 19,9 -20,93
27,00 01:34:08 00:03:17 00:03:17 18,3 1,75